Time;durP1;ratioP1;P1;durP2;ratioP2;P2;SDS_P1;SDS_P2;PMS_P1;PMS_P2;Temp;Humidity;BMP_temperature;BMP_pressure;BME280_temperature;BME280_humidity;BME280_pressure;Samples;Min_cycle;Max_cycle;Signal;HPM_P1;HPM_P2
2022/03/17 00:02:03;;;;;;;27.40;15.02;;;;;;;10.19;74.67;101908.53;5072535;28;20033;-83
2022/03/17 00:04:28;;;;;;;29.50;14.60;;;;;;;10.21;74.54;101908.53;5071955;28;20028;-83
2022/03/17 00:06:54;;;;;;;26.10;14.25;;;;;;;10.19;75.24;101912.84;5087419;28;20035;-83
2022/03/17 00:09:19;;;;;;;30.33;15.13;;;;;;;10.21;74.47;101906.81;5100400;28;20066;-83
2022/03/17 00:11:44;;;;;;;29.93;14.77;;;;;;;10.19;74.71;101911.13;5092020;28;20027;-83
2022/03/17 00:14:10;;;;;;;29.77;15.27;;;;;;;10.21;74.24;101918.91;5091611;28;20437;-83
2022/03/17 00:16:35;;;;;;;29.75;15.48;;;;;;;10.21;74.46;101913.72;5092223;28;20024;-83
2022/03/17 00:19:07;;;;;;;29.35;15.57;;;;;;;10.20;74.38;101912.00;5091348;28;20036;-82
2022/03/17 00:21:34;;;;;;;29.30;15.52;;;;;;;10.20;75.70;101912.00;5091762;28;20055;-82
2022/03/17 00:23:59;;;;;;;28.08;15.13;;;;;;;10.18;74.74;101906.81;5099038;28;20035;-83
2022/03/17 00:26:24;;;;;;;28.90;15.87;;;;;;;10.18;74.80;101909.41;5091825;28;20277;-83
2022/03/17 00:28:50;;;;;;;29.10;14.63;;;;;;;10.17;74.58;101912.84;5096127;28;20281;-83
2022/03/17 00:31:17;;;;;;;30.48;15.52;;;;;;;10.17;74.90;101905.09;5091442;28;20273;-83
2022/03/17 00:33:42;;;;;;;28.45;14.93;;;;;;;10.17;74.99;101906.81;5097104;28;20027;-82
2022/03/17 00:36:08;;;;;;;28.95;15.20;;;;;;;10.17;74.58;101907.69;5100191;28;20142;-83
2022/03/17 00:38:33;;;;;;;32.85;15.43;;;;;;;10.17;74.89;101894.72;5095893;28;20035;-83
2022/03/17 00:40:59;;;;;;;28.27;15.00;;;;;;;10.17;74.85;101904.22;5111788;28;20027;-83
2022/03/17 00:43:24;;;;;;;29.70;15.90;;;;;;;10.14;75.14;101901.63;5082438;28;20527;-83
2022/03/17 00:45:50;;;;;;;30.17;15.18;;;;;;;10.14;75.41;101904.22;5092021;28;20092;-83
2022/03/17 00:48:15;;;;;;;27.35;14.93;;;;;;;10.11;75.77;101912.84;5088908;28;20088;-83
2022/03/17 00:50:40;;;;;;;27.85;14.40;;;;;;;10.07;74.93;101903.38;5072576;28;20028;-83
2022/03/17 00:53:06;;;;;;;27.77;15.50;;;;;;;10.05;74.94;101915.47;5091029;28;20501;-83
2022/03/17 00:55:31;;;;;;;27.35;14.85;;;;;;;10.03;75.64;101913.78;5090480;28;20405;-83
2022/03/17 00:57:57;;;;;;;28.70;15.38;;;;;;;9.98;75.60;101911.19;5091323;28;20063;-83
2022/03/17 01:00:22;;;;;;;26.85;14.50;;;;;;;9.99;75.69;101920.69;5100698;28;20085;-83
2022/03/17 01:02:51;;;;;;;28.50;14.48;;;;;;;9.95;75.74;101911.22;5105075;28;20361;-83
2022/03/17 01:05:17;;;;;;;29.60;14.63;;;;;;;9.95;75.73;101915.53;5091681;28;20035;-83
2022/03/17 01:07:43;;;;;;;29.70;15.15;;;;;;;9.95;75.72;101918.13;5093052;28;20051;-83
2022/03/17 01:10:15;;;;;;;27.88;14.48;;;;;;;9.97;75.67;101918.97;5090094;28;20194;-83
2022/03/17 01:12:43;;;;;;;28.27;14.75;;;;;;;9.97;76.01;101919.81;5097531;28;20022;-83
2022/03/17 01:15:09;;;;;;;31.30;15.75;;;;;;;9.99;76.06;101918.09;5089927;28;20712;-83
2022/03/17 01:17:34;;;;;;;30.30;15.43;;;;;;;10.02;76.01;101917.22;5090919;28;20031;-83
2022/03/17 01:20:00;;;;;;;28.27;15.30;;;;;;;10.02;75.70;101915.50;5094424;28;20118;-83
2022/03/17 01:22:25;;;;;;;27.60;14.05;;;;;;;10.01;75.88;101923.28;5090228;28;20025;-83
2022/03/17 01:24:54;;;;;;;28.48;15.23;;;;;;;10.01;77.17;101918.97;5105544;28;20031;-83
2022/03/17 01:27:20;;;;;;;30.48;15.65;;;;;;;10.02;76.45;101918.09;5089885;28;20028;-83
2022/03/17 01:29:53;;;;;;;30.88;15.70;;;;;;;10.02;76.30;101906.88;5072077;28;20588;-83
2022/03/17 01:32:22;;;;;;;29.35;15.23;;;;;;;10.05;76.28;101905.13;5081799;28;20059;-83
2022/03/17 01:34:48;;;;;;;30.88;15.38;;;;;;;10.07;76.34;101907.72;5106949;28;20024;-83
2022/03/17 01:37:14;;;;;;;28.45;15.20;;;;;;;10.09;76.79;101898.22;5084502;28;20031;-83
2022/03/17 01:39:39;;;;;;;30.67;15.70;;;;;;;10.06;76.56;101908.56;5090215;28;20393;-83
2022/03/17 01:42:07;;;;;;;29.50;15.70;;;;;;;10.06;76.68;101916.34;5075998;28;20526;-83
2022/03/17 01:44:34;;;;;;;32.40;16.08;;;;;;;10.06;76.89;101918.94;5097577;28;20077;-83
2022/03/17 01:49:43;;;;;;;31.55;15.68;;;;;;;10.14;76.49;101918.03;5105513;28;20059;-83
2022/03/17 01:52:09;;;;;;;31.23;15.88;;;;;;;10.17;76.30;101906.81;5100929;28;20400;-83
2022/03/17 01:54:35;;;;;;;31.65;15.50;;;;;;;10.16;76.35;101907.69;5093832;28;20401;-83
2022/03/17 01:57:03;;;;;;;31.55;15.90;;;;;;;10.19;76.55;101911.13;5099061;28;20028;-83
2022/03/17 01:59:31;;;;;;;29.88;15.15;;;;;;;10.21;76.76;101909.41;5099090;28;20020;-83
2022/03/17 02:01:56;;;;;;;28.98;15.38;;;;;;;10.24;76.59;101905.91;5072460;28;20059;-83
2022/03/17 02:04:22;;;;;;;30.02;15.85;;;;;;;10.23;76.93;101912.84;5072544;28;20070;-83
2022/03/17 02:06:48;;;;;;;31.58;15.93;;;;;;;10.26;77.21;101911.97;5103091;28;20078;-82
2022/03/17 02:09:14;;;;;;;31.27;15.73;;;;;;;10.27;77.44;101908.50;5110441;28;20036;-82
2022/03/17 02:14:25;;;;;;;29.48;15.60;;;;;;;10.32;77.13;101911.91;5100420;28;20043;-83
2022/03/17 02:16:51;;;;;;;32.22;15.88;;;;;;;10.33;77.38;101915.38;5088993;28;20028;-83
2022/03/17 02:19:17;;;;;;;27.30;15.25;;;;;;;10.34;77.20;101915.38;5092819;28;20503;-83
2022/03/17 02:21:44;;;;;;;31.63;15.77;;;;;;;10.34;77.66;101911.91;5095687;28;20057;-83
2022/03/17 02:26:55;;;;;;;28.67;14.75;;;;;;;10.39;77.55;101920.53;5093021;28;20042;-83
2022/03/17 02:29:20;;;;;;;30.27;15.73;;;;;;;10.40;77.50;101932.63;5106332;28;20553;-83
2022/03/17 02:31:45;;;;;;;29.63;15.43;;;;;;;10.40;77.92;101930.88;5088953;28;20056;-83
2022/03/17 02:34:11;;;;;;;32.75;15.85;;;;;;;10.41;77.67;101921.38;5092812;28;20065;-83
2022/03/17 02:36:48;;;;;;;31.38;15.73;;;;;;;10.42;77.60;101928.28;5100009;28;20043;-83
2022/03/17 02:39:14;;;;;;;30.60;15.98;;;;;;;10.43;77.91;101928.28;5091535;28;20480;-83
2022/03/17 02:41:40;;;;;;;31.65;16.75;;;;;;;10.44;79.66;101932.56;5091783;28;20502;-83
2022/03/17 02:44:05;;;;;;;31.50;15.77;;;;;;;10.44;78.70;101924.81;5089245;28;20492;-83
2022/03/17 02:46:30;;;;;;;31.50;16.60;;;;;;;10.48;79.00;101946.41;5070399;28;20542;-83
2022/03/17 02:48:56;;;;;;;32.85;15.80;;;;;;;10.48;79.02;101944.66;5102438;28;20170;-83
2022/03/17 02:51:21;;;;;;;30.08;15.52;;;;;;;10.48;78.88;101942.09;5097649;28;20022;-83
2022/03/17 02:53:46;;;;;;;33.67;16.23;;;;;;;10.52;79.27;101948.09;5099302;28;20027;-83
2022/03/17 02:56:11;;;;;;;30.10;15.57;;;;;;;10.52;79.55;101954.13;5091970;28;20290;-83
2022/03/17 02:58:37;;;;;;;32.00;16.57;;;;;;;10.54;79.49;101949.81;5101252;28;20285;-83
2022/03/17 03:01:03;;;;;;;31.83;16.33;;;;;;;10.53;79.65;101952.41;5087753;28;20312;-83
2022/03/17 03:03:28;;;;;;;34.78;17.15;;;;;;;10.56;80.02;101960.19;5101944;28;20027;-83
2022/03/17 03:05:53;;;;;;;36.28;17.13;;;;;;;10.57;80.66;101962.78;5095065;28;20425;-83
2022/03/17 03:08:19;;;;;;;33.47;17.53;;;;;;;10.55;81.56;101964.50;5081833;28;20050;-83
2022/03/17 03:10:44;;;;;;;33.72;17.00;;;;;;;10.54;82.22;101972.28;5091496;28;20758;-83
2022/03/17 03:13:10;;;;;;;36.22;17.95;;;;;;;10.55;82.71;101984.38;5093684;28;20024;-83
2022/03/17 03:15:35;;;;;;;34.83;18.33;;;;;;;10.52;83.63;101977.47;5092355;28;20039;-83
2022/03/17 03:18:01;;;;;;;38.38;18.88;;;;;;;10.51;84.40;101987.84;5096647;28;20495;-83
2022/03/17 03:20:26;;;;;;;39.47;18.75;;;;;;;10.45;85.93;101999.09;5107099;28;20020;-83
2022/03/17 03:22:52;;;;;;;35.67;16.83;;;;;;;10.38;87.67;102001.72;5077394;28;20031;-83
2022/03/17 03:25:17;;;;;;;37.92;18.85;;;;;;;10.27;88.87;102015.59;5096147;28;20028;-83
2022/03/17 03:27:43;;;;;;;32.95;16.48;;;;;;;10.18;89.98;102025.13;5103660;28;20027;-83
2022/03/17 03:30:11;;;;;;;25.65;14.25;;;;;;;10.10;90.63;102034.66;5092386;28;20024;-83
2022/03/17 03:32:37;;;;;;;22.85;12.57;;;;;;;10.02;91.55;102045.03;5078863;28;20020;-83
2022/03/17 03:37:22;;;;;;;19.88;11.43;;;;;;;9.96;91.59;102049.34;5100442;28;20035;-83
2022/03/17 03:37:49;;;;;;;17.00;10.40;;;;;;;9.86;91.79;102053.66;5099794;28;20054;-83
2022/03/17 03:40:14;;;;;;;18.17;10.18;;;;;;;9.78;92.87;102066.63;5094289;28;20024;-83
2022/03/17 03:42:39;;;;;;;17.80;10.10;;;;;;;9.74;92.95;102064.91;5092767;28;20032;-83
2022/03/17 03:45:05;;;;;;;16.20;9.93;;;;;;;9.64;93.29;102073.53;5107399;28;20285;-83
2022/03/17 03:47:30;;;;;;;16.70;10.20;;;;;;;9.58;93.05;102076.13;5093687;28;20460;-83
2022/03/17 03:49:55;;;;;;;16.75;9.93;;;;;;;9.52;92.36;102068.38;5091659;28;20506;-83
2022/03/17 03:52:20;;;;;;;16.43;10.13;;;;;;;9.47;92.13;102088.22;5098022;28;20686;-83
2022/03/17 03:54:46;;;;;;;20.00;11.27;;;;;;;9.45;92.19;102093.38;5109590;28;20290;-83
2022/03/17 03:57:11;;;;;;;20.05;11.63;;;;;;;9.45;92.21;102106.31;5098461;28;20084;-83
2022/03/17 03:59:38;;;;;;;21.17;12.70;;;;;;;9.44;91.68;102114.94;5105457;28;20114;-83
2022/03/17 04:02:06;;;;;;;24.60;13.98;;;;;;;9.43;91.90;102122.69;5097390;28;20027;-83
2022/03/17 04:04:34;;;;;;;26.83;14.88;;;;;;;9.40;91.60;102131.34;5100073;28;20023;-83
2022/03/17 04:07:02;;;;;;;28.95;17.00;;;;;;;9.39;91.22;102139.97;5095693;28;20020;-83
2022/03/17 04:09:29;;;;;;;31.40;16.35;;;;;;;9.31;91.86;102141.66;5094114;28;20123;-83
2022/03/17 04:11:55;;;;;;;27.98;15.20;;;;;;;9.29;91.45;102151.13;5099688;28;20151;-83
2022/03/17 04:14:22;;;;;;;28.83;15.32;;;;;;;9.25;91.67;102156.31;5077666;28;20512;-83
2022/03/17 04:16:48;;;;;;;24.52;13.85;;;;;;;9.23;91.04;102163.19;5090928;28;20028;-83
2022/03/17 04:19:15;;;;;;;27.27;14.23;;;;;;;9.19;91.04;102172.69;5095957;28;20043;-83
2022/03/17 04:21:40;;;;;;;23.20;11.90;;;;;;;9.10;90.58;102178.66;5092019;28;20103;-83
2022/03/17 04:24:05;;;;;;;19.48;10.52;;;;;;;8.98;91.12;102188.97;5091585;28;20172;-83
2022/03/17 04:26:31;;;;;;;20.08;9.77;;;;;;;8.89;91.05;102195.81;5094258;28;20030;-84
2022/03/17 04:28:56;;;;;;;20.65;9.85;;;;;;;8.84;91.14;102207.84;5095490;28;20157;-83
2022/03/17 04:31:22;;;;;;;22.90;11.48;;;;;;;8.81;91.59;102210.41;5094376;28;20024;-83
2022/03/17 04:33:48;;;;;;;25.58;13.15;;;;;;;8.81;91.72;102220.75;5089368;28;20042;-82
2022/03/17 04:36:14;;;;;;;26.25;12.88;;;;;;;8.80;92.11;102225.09;5109262;28;20032;-83
2022/03/17 04:38:39;;;;;;;26.23;12.93;;;;;;;8.77;92.00;102237.13;5104805;28;20030;-83
2022/03/17 04:41:05;;;;;;;23.02;12.07;;;;;;;8.72;92.12;102244.84;5091486;28;20081;-83
2022/03/17 04:43:31;;;;;;;26.30;13.43;;;;;;;8.63;93.27;102247.38;5100788;28;20028;-83
2022/03/17 04:45:56;;;;;;;27.10;13.00;;;;;;;8.53;93.67;102256.75;5074467;28;20374;-83
2022/03/17 04:48:21;;;;;;;27.00;13.85;;;;;;;8.47;94.13;102267.06;5091534;28;20081;-83
2022/03/17 04:50:47;;;;;;;28.42;14.10;;;;;;;8.38;94.93;102272.19;5099829;28;20024;-83
2022/03/17 04:53:27;;;;;;;27.15;13.75;;;;;;;8.31;95.54;102273.84;5096599;28;20066;-83
2022/03/17 04:56:09;;;;;;;28.77;13.80;;;;;;;8.28;95.40;102281.53;5104893;28;20024;-83
2022/03/17 04:58:40;;;;;;;28.42;13.70;;;;;;;8.18;95.47;102294.34;5103357;28;20503;-83
2022/03/17 05:01:06;;;;;;;29.92;14.70;;;;;;;8.11;95.83;102297.72;5093728;28;20032;-83
2022/03/17 05:03:33;;;;;;;30.23;14.27;;;;;;;8.02;96.01;102302.78;5083808;28;20032;-83
2022/03/17 05:05:59;;;;;;;29.50;15.32;;;;;;;7.91;96.37;102313.00;5089575;28;20032;-83
2022/03/17 05:08:24;;;;;;;28.45;13.55;;;;;;;7.86;96.10;102323.28;5090366;28;20530;-83
2022/03/17 05:10:52;;;;;;;27.10;13.65;;;;;;;7.83;95.65;102337.88;5103039;28;20032;-83
2022/03/17 05:13:19;;;;;;;26.25;11.32;;;;;;;7.76;95.54;102344.69;5099314;28;20527;-83
2022/03/17 05:15:46;;;;;;;18.98;8.85;;;;;;;7.74;93.44;102348.06;5100237;28;20039;-83
2022/03/17 05:18:12;;;;;;;16.38;8.50;;;;;;;7.69;93.27;102371.25;5090816;28;20036;-83
2022/03/17 05:20:38;;;;;;;20.48;8.52;;;;;;;7.65;93.61;102373.75;5090967;28;20243;-83
2022/03/17 05:23:05;;;;;;;17.58;7.70;;;;;;;7.62;92.51;102372.03;5106131;28;20027;-83
2022/03/17 05:25:31;;;;;;;17.55;7.05;;;;;;;7.62;91.96;102389.22;5095893;28;20029;-83
2022/03/17 05:27:59;;;;;;;18.38;6.30;;;;;;;7.60;91.53;102394.34;5096920;28;20031;-83
2022/03/17 05:30:26;;;;;;;14.50;5.65;;;;;;;7.60;91.31;102402.09;5096010;28;20031;-83
2022/03/17 05:32:51;;;;;;;15.20;5.68;;;;;;;7.59;90.61;102412.38;5091943;28;20512;-83
2022/03/17 05:35:17;;;;;;;13.05;5.97;;;;;;;7.60;90.46;102422.75;5095379;28;20028;-83
2022/03/17 05:37:43;;;;;;;15.13;5.00;;;;;;;7.56;89.83;102420.97;5093346;28;20039;-83
2022/03/17 05:40:15;;;;;;;14.93;4.90;;;;;;;7.57;88.36;102435.63;5100724;28;20032;-83
2022/03/17 05:42:41;;;;;;;14.23;4.50;;;;;;;7.54;87.77;102435.56;5078895;28;20110;-83
2022/03/17 05:45:07;;;;;;;12.18;4.65;;;;;;;7.52;88.06;102439.81;5095751;28;20161;-83
2022/03/17 05:47:37;;;;;;;13.52;4.60;;;;;;;7.53;87.20;102457.91;5097517;28;20036;-83
2022/03/17 05:50:05;;;;;;;12.23;4.00;;;;;;;7.53;86.79;102457.91;5090009;28;20169;-83
2022/03/17 05:52:31;;;;;;;11.82;4.20;;;;;;;7.52;87.28;102457.88;5104385;28;20028;-83
2022/03/17 05:54:57;;;;;;;12.65;3.80;;;;;;;7.52;86.41;102475.94;5092406;28;20404;-83
2022/03/17 05:57:22;;;;;;;13.93;3.75;;;;;;;7.53;86.32;102481.13;5095169;28;20476;-83
2022/03/17 05:59:47;;;;;;;9.97;3.60;;;;;;;7.53;87.16;102482.84;5099586;28;20122;-83
2022/03/17 06:02:12;;;;;;;14.00;3.88;;;;;;;7.53;86.45;102477.69;5096436;28;20578;-83
2022/03/17 06:04:38;;;;;;;14.90;3.53;;;;;;;7.55;86.92;102486.31;5093957;28;20025;-83
2022/03/17 06:07:04;;;;;;;9.27;3.65;;;;;;;7.54;86.21;102500.94;5095022;28;20294;-83
2022/03/17 06:09:29;;;;;;;13.40;3.20;;;;;;;7.55;86.11;102504.38;5099747;28;20059;-83
2022/03/17 06:11:55;;;;;;;8.83;3.03;;;;;;;7.54;85.92;102512.97;5090770;28;20038;-83
2022/03/17 06:14:21;;;;;;;12.73;3.35;;;;;;;7.53;86.59;102511.22;5096086;28;20569;-83
2022/03/17 06:16:46;;;;;;;12.38;3.40;;;;;;;7.51;86.70;102523.22;5071978;28;20104;-84
2022/03/17 06:19:11;;;;;;;8.18;2.60;;;;;;;7.48;86.23;102534.38;5099006;28;20024;-83
2022/03/17 06:21:36;;;;;;;11.10;2.50;;;;;;;7.50;86.95;102532.72;5108423;28;20110;-83
2022/03/17 06:24:02;;;;;;;7.57;3.00;;;;;;;7.53;86.69;102542.19;5099021;28;20289;-83
2022/03/17 06:26:27;;;;;;;10.90;2.60;;;;;;;7.52;86.19;102549.06;5081816;28;20278;-84
2022/03/17 06:28:52;;;;;;;10.63;2.60;;;;;;;7.53;85.71;102552.50;5068746;28;20103;-84
2022/03/17 06:31:17;;;;;;;7.23;2.53;;;;;;;7.53;85.18;102555.97;5081832;28;20292;-84
2022/03/17 06:33:45;;;;;;;11.13;2.72;;;;;;;7.53;85.08;102565.41;5089764;28;20344;-84
2022/03/17 06:36:11;;;;;;;5.63;2.08;;;;;;;7.53;85.15;102568.88;5070953;28;20506;-83
2022/03/17 06:38:36;;;;;;;6.78;2.33;;;;;;;7.51;85.82;102572.25;5085507;28;20557;-83
2022/03/17 06:41:01;;;;;;;9.98;3.55;;;;;;;7.53;85.74;102580.91;5070502;28;20029;-83
2022/03/17 06:43:26;;;;;;;10.25;2.40;;;;;;;7.55;85.71;102594.69;5089547;28;20135;-84
2022/03/17 06:45:52;;;;;;;9.50;2.57;;;;;;;7.54;85.72;102586.09;5089476;28;20024;-83
2022/03/17 06:48:17;;;;;;;7.40;2.22;;;;;;;7.57;85.20;102603.34;5091312;28;20392;-83
2022/03/17 06:50:42;;;;;;;8.50;2.43;;;;;;;7.59;84.67;102613.66;5092731;28;20457;-83
2022/03/17 06:53:08;;;;;;;7.82;2.10;;;;;;;7.64;84.51;102610.34;5095629;28;20292;-83
2022/03/17 06:55:33;;;;;;;13.20;2.40;;;;;;;7.70;84.63;102618.19;5095742;28;20028;-83
2022/03/17 06:57:59;;;;;;;9.75;2.38;;;;;;;7.75;84.05;102619.13;5093341;28;20416;-83
2022/03/17 07:00:25;;;;;;;9.80;2.42;;;;;;;7.81;83.44;102620.94;5091722;28;20565;-83
2022/03/17 07:02:50;;;;;;;8.73;2.30;;;;;;;7.86;83.36;102629.59;5101108;28;20032;-83
2022/03/17 07:05:15;;;;;;;7.03;2.30;;;;;;;7.94;82.64;102641.81;5088112;28;20039;-83
2022/03/17 07:07:42;;;;;;;8.35;1.90;;;;;;;7.99;83.11;102639.28;5092944;28;20627;-84
2022/03/17 07:10:08;;;;;;;9.02;2.20;;;;;;;8.01;81.77;102649.66;5095129;28;20135;-84
2022/03/17 07:12:37;;;;;;;9.45;2.50;;;;;;;8.00;82.10;102656.53;5099632;28;20095;-83
2022/03/17 07:15:04;;;;;;;10.13;2.42;;;;;;;7.98;81.62;102663.41;5097671;28;20035;-84
2022/03/17 07:17:39;;;;;;;8.48;1.98;;;;;;;7.97;83.48;102668.53;5098029;28;20082;-83
2022/03/17 07:20:06;;;;;;;7.47;2.20;;;;;;;7.89;82.32;102673.56;5091643;28;20461;-83
2022/03/17 07:22:31;;;;;;;8.95;2.40;;;;;;;7.82;83.51;102679.47;5092968;28;20039;-84
2022/03/17 07:24:56;;;;;;;8.18;2.00;;;;;;;7.79;84.44;102689.72;5092269;28;20020;-84
2022/03/17 07:27:22;;;;;;;5.90;1.93;;;;;;;7.79;85.00;102695.75;5098020;28;20016;-84
2022/03/17 07:29:48;;;;;;;8.93;1.90;;;;;;;7.84;84.02;102688.13;5111280;28;20337;-84
2022/03/17 07:32:13;;;;;;;8.20;2.13;;;;;;;7.86;84.08;102705.34;5103827;28;20110;-85
2022/03/17 07:34:38;;;;;;;5.63;1.50;;;;;;;7.95;84.94;102704.66;5096410;28;20103;-84
2022/03/17 07:37:04;;;;;;;9.13;1.65;;;;;;;8.02;82.81;102705.63;5095084;28;20290;-84
2022/03/17 07:39:29;;;;;;;7.82;1.52;;;;;;;8.16;83.25;102719.63;5091792;28;20381;-84
2022/03/17 07:41:55;;;;;;;9.27;1.98;;;;;;;8.24;82.75;102718.03;5073643;28;20031;-84
2022/03/17 07:44:20;;;;;;;6.75;1.55;;;;;;;8.26;81.61;102722.38;5090632;28;20081;-84
2022/03/17 07:46:48;;;;;;;10.93;1.60;;;;;;;8.27;81.17;102734.44;5092010;28;20020;-84
2022/03/17 07:49:14;;;;;;;6.85;1.33;;;;;;;8.26;81.31;102737.00;5091734;28;20419;-84
2022/03/17 07:51:40;;;;;;;7.93;1.42;;;;;;;8.33;81.23;102729.41;5092129;28;20258;-84
2022/03/17 07:54:07;;;;;;;9.27;1.63;;;;;;;8.41;81.16;102734.69;5092894;28;20540;-84
2022/03/17 07:56:33;;;;;;;9.30;1.58;;;;;;;8.46;80.21;102740.81;5099603;28;20111;-84
2022/03/17 07:58:59;;;;;;;8.80;1.60;;;;;;;8.45;81.66;102743.38;5091484;28;20099;-84
2022/03/17 08:01:25;;;;;;;8.90;1.63;;;;;;;8.45;80.54;102756.31;5099887;28;20028;-84
2022/03/17 08:03:53;;;;;;;9.52;1.50;;;;;;;8.43;80.90;102761.44;5107913;28;20063;-83
2022/03/17 08:06:19;;;;;;;10.05;1.80;;;;;;;8.38;80.33;102764.81;5097933;28;20023;-84
2022/03/17 08:08:46;;;;;;;7.93;1.60;;;;;;;8.35;80.20;102770.78;5104979;28;20127;-84
2022/03/17 08:11:11;;;;;;;12.73;2.00;;;;;;;8.34;79.88;102779.38;5086878;28;20031;-84
2022/03/17 08:13:36;;;;;;;11.90;1.95;;;;;;;8.32;80.05;102781.94;5099931;28;20020;-84
2022/03/17 08:16:02;;;;;;;8.50;1.63;;;;;;;8.30;80.30;102788.81;5097622;28;20062;-84
2022/03/17 08:18:27;;;;;;;7.43;1.70;;;;;;;8.30;80.43;102793.97;5112167;28;20273;-84
2022/03/17 08:20:53;;;;;;;9.95;2.20;;;;;;;8.28;80.80;102787.88;5106985;28;20046;-84
2022/03/17 08:23:21;;;;;;;9.07;1.70;;;;;;;8.32;79.07;102810.34;5093004;28;20040;-84
2022/03/17 08:25:48;;;;;;;10.80;1.80;;;;;;;8.33;78.06;102806.06;5063709;28;20294;-84
2022/03/17 08:28:14;;;;;;;12.55;1.98;;;;;;;8.35;77.26;102804.38;5092851;28;20473;-84
2022/03/17 08:30:39;;;;;;;10.85;1.70;;;;;;;8.43;78.37;102817.44;5102502;28;20031;-84
2022/03/17 08:33:04;;;;;;;9.00;1.73;;;;;;;8.48;77.89;102820.94;5100768;28;20387;-84
2022/03/17 08:35:30;;;;;;;7.70;1.40;;;;;;;8.58;77.33;102830.59;5108273;28;20020;-84
2022/03/17 08:37:57;;;;;;;9.63;1.73;;;;;;;8.68;77.54;102837.66;5086792;28;20274;-84
2022/03/17 08:40:23;;;;;;;7.00;1.27;;;;;;;8.79;76.46;102832.66;5081204;28;20027;-84
2022/03/17 08:42:48;;;;;;;7.80;1.45;;;;;;;8.84;75.70;102839.66;5078052;28;20063;-84
2022/03/17 08:50:44;;;;;;;6.70;1.55;;;;;;;9.19;72.62;102853.09;5097802;28;20081;-84
2022/03/17 08:53:10;;;;;;;7.97;1.48;;;;;;;9.21;70.76;102860.91;5081931;28;20044;-84
2022/03/17 08:55:36;;;;;;;6.95;1.38;;;;;;;9.26;71.04;102865.28;5088264;28;20027;-84
2022/03/17 08:58:03;;;;;;;4.72;1.10;;;;;;;9.29;70.36;102870.47;5090646;28;20040;-84
2022/03/17 09:00:31;;;;;;;9.60;1.52;;;;;;;9.35;70.79;102867.97;5086708;28;20464;-84
2022/03/17 09:03:01;;;;;;;5.40;1.15;;;;;;;9.44;68.43;102864.66;5090557;28;20028;-84
2022/03/17 09:05:27;;;;;;;10.48;1.33;;;;;;;9.58;68.26;102880.38;5089357;28;20031;-84
2022/03/17 09:07:52;;;;;;;8.77;1.30;;;;;;;9.64;68.22;102875.25;5090374;28;20048;-84
2022/03/17 09:10:18;;;;;;;10.87;1.40;;;;;;;9.59;67.78;102884.69;5088989;28;20020;-84
2022/03/17 09:12:43;;;;;;;9.77;1.30;;;;;;;9.47;66.88;102883.69;5082290;28;20814;-83
2022/03/17 09:15:11;;;;;;;7.00;1.10;;;;;;;9.39;69.10;102900.84;5089077;28;20035;-84
2022/03/17 09:17:40;;;;;;;6.43;1.20;;;;;;;9.31;68.01;102892.09;5092062;28;20073;-84
2022/03/17 09:20:08;;;;;;;8.75;1.50;;;;;;;9.26;67.86;102898.94;5095467;28;20024;-84
2022/03/17 09:22:34;;;;;;;10.30;1.33;;;;;;;9.32;67.92;102903.31;5090545;28;20093;-84
2022/03/17 09:25:00;;;;;;;5.93;1.30;;;;;;;9.42;67.60;102907.75;5071280;28;20032;-84
2022/03/17 09:27:28;;;;;;;8.73;1.50;;;;;;;9.43;66.94;102905.19;5090007;28;20020;-84
2022/03/17 09:29:54;;;;;;;9.10;1.55;;;;;;;9.46;66.83;102918.19;5100514;28;20682;-84
2022/03/17 09:32:20;;;;;;;10.38;1.60;;;;;;;9.50;67.11;102917.38;5114345;28;20175;-84
2022/03/17 09:34:46;;;;;;;9.00;1.50;;;;;;;9.54;67.07;102930.38;5099372;28;20028;-84
2022/03/17 09:37:11;;;;;;;5.20;1.30;;;;;;;9.57;66.78;102930.41;5062198;28;20092;-83
2022/03/17 09:39:42;;;;;;;7.55;1.30;;;;;;;9.60;66.32;102939.09;5089695;28;20059;-84
2022/03/17 09:42:07;;;;;;;8.38;1.20;;;;;;;9.69;65.80;102943.53;5092989;28;20035;-84
2022/03/17 09:44:34;;;;;;;9.48;1.30;;;;;;;9.77;66.86;102949.66;5099524;28;20031;-85
2022/03/17 09:47:02;;;;;;;5.95;1.20;;;;;;;9.81;65.13;102944.56;5102125;28;20066;-84
2022/03/17 09:49:28;;;;;;;9.25;1.60;;;;;;;9.89;65.34;102944.69;5101223;28;20020;-83
2022/03/17 09:51:55;;;;;;;10.38;1.88;;;;;;;10.00;66.27;102948.25;5088456;28;20081;-83
2022/03/17 09:54:21;;;;;;;9.55;1.55;;;;;;;10.03;64.99;102950.88;5089072;28;20073;-83
2022/03/17 09:56:46;;;;;;;9.77;1.52;;;;;;;10.01;63.69;102957.78;5084708;28;20027;-83
2022/03/17 09:59:12;;;;;;;6.13;1.75;;;;;;;10.04;63.74;102967.28;5085499;28;20115;-84
2022/03/17 10:01:38;;;;;;;5.28;1.50;;;;;;;10.07;64.79;102970.81;5089721;28;20035;-84
2022/03/17 10:04:04;;;;;;;7.82;1.35;;;;;;;10.08;65.85;102982.91;5097576;28;20027;-84
2022/03/17 10:06:29;;;;;;;6.65;1.67;;;;;;;10.16;64.45;102977.84;5106188;28;20027;-84
2022/03/17 10:08:56;;;;;;;6.57;1.67;;;;;;;10.27;64.70;102990.09;5110024;28;20058;-84
2022/03/17 10:11:31;;;;;;;10.57;2.00;;;;;;;10.36;62.76;102991.06;5109679;28;20294;-83
2022/03/17 10:13:57;;;;;;;8.35;1.70;;;;;;;10.30;61.74;103000.47;5109903;28;20017;-84
2022/03/17 10:16:25;;;;;;;5.13;1.40;;;;;;;10.33;62.58;103006.56;5092994;28;20098;-83
2022/03/17 10:19:32;;;;;;;6.50;1.38;;;;;;;10.39;63.08;103009.22;5089316;28;20492;-83
2022/03/17 10:22:13;;;;;;;6.32;1.38;;;;;;;10.47;60.93;103012.78;5087829;28;20097;-84
2022/03/17 10:24:52;;;;;;;6.88;1.55;;;;;;;10.56;61.55;103010.31;5066281;28;20390;-84
2022/03/17 10:27:36;;;;;;;6.85;1.42;;;;;;;10.64;62.01;103021.66;5079916;28;20050;-84
2022/03/17 10:30:06;;;;;;;3.65;1.45;;;;;;;10.72;63.19;103022.56;5088175;28;20028;-85
2022/03/17 10:32:31;;;;;;;5.75;1.65;;;;;;;10.82;62.66;103026.16;5094339;28;20020;-84
2022/03/17 10:34:57;;;;;;;5.63;1.60;;;;;;;10.82;61.19;103042.59;5094061;28;20032;-84
2022/03/17 10:37:24;;;;;;;4.88;1.30;;;;;;;10.92;62.55;103043.53;5089071;28;20039;-84
2022/03/17 10:39:52;;;;;;;7.70;1.45;;;;;;;11.01;62.16;103048.81;5089478;28;20568;-84
2022/03/17 10:42:25;;;;;;;4.70;1.52;;;;;;;11.12;62.54;103048.94;5088579;28;20075;-84
2022/03/17 10:44:52;;;;;;;7.63;1.48;;;;;;;11.15;60.65;103052.41;5089742;28;20028;-84
2022/03/17 10:47:26;;;;;;;8.90;1.70;;;;;;;11.12;61.06;103060.19;5095940;28;20024;-84
2022/03/17 10:50:09;;;;;;;6.03;1.45;;;;;;;11.04;59.32;103062.72;5094556;28;20485;-84
2022/03/17 10:52:55;;;;;;;8.82;1.60;;;;;;;10.99;60.97;103066.09;5100319;28;20024;-83
2022/03/17 10:55:26;;;;;;;6.53;1.75;;;;;;;10.99;60.28;103068.69;5086752;28;20028;-83
2022/03/17 10:58:09;;;;;;;6.82;1.90;;;;;;;10.99;58.12;103066.97;5099926;28;20051;-83
2022/03/17 11:00:45;;;;;;;5.95;1.50;;;;;;;11.03;61.18;103070.47;5088111;28;20221;-83
2022/03/17 11:03:10;;;;;;;7.68;1.70;;;;;;;11.00;59.69;103073.91;5088219;28;20073;-83
2022/03/17 11:05:36;;;;;;;5.75;1.75;;;;;;;10.98;58.64;103080.81;5088087;28;20020;-84
2022/03/17 11:08:02;;;;;;;7.32;1.40;;;;;;;10.97;59.28;103091.19;5086249;28;20056;-84
2022/03/17 11:10:28;;;;;;;5.38;1.75;;;;;;;11.06;59.89;103089.53;5088522;28;20516;-84
2022/03/17 11:12:53;;;;;;;4.28;1.65;;;;;;;11.19;58.73;103092.28;5107982;28;20047;-84
2022/03/17 11:15:29;;;;;;;6.97;1.70;;;;;;;11.31;60.03;103097.56;5101203;28;20035;-83
2022/03/17 11:17:59;;;;;;;6.03;1.50;;;;;;;11.35;58.93;103110.59;5108621;28;20024;-84
2022/03/17 11:20:25;;;;;;;7.75;1.80;;;;;;;11.41;59.17;103112.38;5101997;28;20080;-83
2022/03/17 11:23:15;;;;;;;7.60;1.70;;;;;;;11.59;60.57;103114.28;5089686;28;20028;-83
2022/03/17 11:25:49;;;;;;;5.82;1.80;;;;;;;11.68;57.31;103114.34;5084875;28;20077;-83
2022/03/17 11:28:15;;;;;;;5.40;1.73;;;;;;;11.75;56.52;103113.56;5080155;28;20051;-83
2022/03/17 11:30:44;;;;;;;4.90;1.58;;;;;;;11.74;58.59;103112.69;5094060;28;20027;-83
2022/03/17 11:33:32;;;;;;;6.47;2.10;;;;;;;11.78;58.37;103122.28;5092996;28;20020;-84
2022/03/17 11:36:00;;;;;;;5.85;2.00;;;;;;;11.71;57.81;103133.44;5090294;28;20123;-84